sensor_id;sensor_type;location;lat;lon;timestamp;temperature;humidity
19538;DHT22;9914;51.008;4.300;2023-08-21T00:01:41;21.50;99.90
19538;DHT22;9914;51.008;4.300;2023-08-21T00:04:07;21.50;99.90
19538;DHT22;9914;51.008;4.300;2023-08-21T00:06:33;21.60;99.90
19538;DHT22;9914;51.008;4.300;2023-08-21T00:09:01;21.70;99.90
19538;DHT22;9914;51.008;4.300;2023-08-21T00:11:27;21.70;99.90
19538;DHT22;9914;51.008;4.300;2023-08-21T00:13:53;21.60;99.90
19538;DHT22;9914;51.008;4.300;2023-08-21T00:16:18;21.60;99.90
19538;DHT22;9914;51.008;4.300;2023-08-21T00:18:44;21.50;99.90
19538;DHT22;9914;51.008;4.300;2023-08-21T00:21:10;21.40;99.90
19538;DHT22;9914;51.008;4.300;2023-08-21T00:23:36;21.30;99.90
19538;DHT22;9914;51.008;4.300;2023-08-21T00:26:02;21.30;99.90
19538;DHT22;9914;51.008;4.300;2023-08-21T00:28:27;21.30;99.90
19538;DHT22;9914;51.008;4.300;2023-08-21T00:31:02;21.40;99.90
19538;DHT22;9914;51.008;4.300;2023-08-21T00:33:32;21.40;99.90
19538;DHT22;9914;51.008;4.300;2023-08-21T00:35:58;21.40;99.90
19538;DHT22;9914;51.008;4.300;2023-08-21T00:38:25;21.40;99.90
19538;DHT22;9914;51.008;4.300;2023-08-21T00:40:52;21.30;99.90
19538;DHT22;9914;51.008;4.300;2023-08-21T00:43:17;21.20;99.90
19538;DHT22;9914;51.008;4.300;2023-08-21T00:45:44;20.80;99.90
19538;DHT22;9914;51.008;4.300;2023-08-21T00:48:12;20.70;99.90
19538;DHT22;9914;51.008;4.300;2023-08-21T00:50:38;20.80;99.90
19538;DHT22;9914;51.008;4.300;2023-08-21T00:53:04;20.80;99.90
19538;DHT22;9914;51.008;4.300;2023-08-21T00:55:30;20.90;99.90
19538;DHT22;9914;51.008;4.300;2023-08-21T00:57:56;20.90;99.90
19538;DHT22;9914;51.008;4.300;2023-08-21T01:00:23;21.30;99.90
19538;DHT22;9914;51.008;4.300;2023-08-21T01:02:49;21.50;99.90
19538;DHT22;9914;51.008;4.300;2023-08-21T01:05:17;21.20;99.90
19538;DHT22;9914;51.008;4.300;2023-08-21T01:08:01;20.70;99.90
19538;DHT22;9914;51.008;4.300;2023-08-21T01:13:47;21.20;99.90
19538;DHT22;9914;51.008;4.300;2023-08-21T01:16:14;21.20;99.90
19538;DHT22;9914;51.008;4.300;2023-08-21T01:18:42;21.30;99.90
19538;DHT22;9914;51.008;4.300;2023-08-21T01:21:08;20.90;99.90
19538;DHT22;9914;51.008;4.300;2023-08-21T01:23:35;21.10;99.90
19538;DHT22;9914;51.008;4.300;2023-08-21T01:26:01;21.20;99.90
19538;DHT22;9914;51.008;4.300;2023-08-21T01:28:27;21.10;99.90
19538;DHT22;9914;51.008;4.300;2023-08-21T01:31:15;21.10;99.90
19538;DHT22;9914;51.008;4.300;2023-08-21T01:33:46;21.10;99.90
19538;DHT22;9914;51.008;4.300;2023-08-21T01:36:13;21.20;99.90
19538;DHT22;9914;51.008;4.300;2023-08-21T01:38:39;21.30;99.90
19538;DHT22;9914;51.008;4.300;2023-08-21T01:41:05;21.30;99.90
19538;DHT22;9914;51.008;4.300;2023-08-21T01:43:31;21.40;99.90
19538;DHT22;9914;51.008;4.300;2023-08-21T01:45:57;21.40;99.90
19538;DHT22;9914;51.008;4.300;2023-08-21T01:48:23;21.40;99.90
19538;DHT22;9914;51.008;4.300;2023-08-21T01:50:49;21.20;99.90
19538;DHT22;9914;51.008;4.300;2023-08-21T01:53:14;21.10;99.90
19538;DHT22;9914;51.008;4.300;2023-08-21T01:55:40;21.20;99.90
19538;DHT22;9914;51.008;4.300;2023-08-21T01:58:06;21.30;99.90
19538;DHT22;9914;51.008;4.300;2023-08-21T02:00:31;21.30;99.90
19538;DHT22;9914;51.008;4.300;2023-08-21T02:02:57;21.00;99.90
19538;DHT22;9914;51.008;4.300;2023-08-21T02:05:23;21.10;99.90
19538;DHT22;9914;51.008;4.300;2023-08-21T02:07:48;21.10;99.90
19538;DHT22;9914;51.008;4.300;2023-08-21T02:10:14;21.10;99.90
19538;DHT22;9914;51.008;4.300;2023-08-21T02:12:39;21.00;99.90
19538;DHT22;9914;51.008;4.300;2023-08-21T02:15:06;20.90;99.90
19538;DHT22;9914;51.008;4.300;2023-08-21T02:17:31;20.80;99.90
19538;DHT22;9914;51.008;4.300;2023-08-21T02:19:57;20.70;99.90
19538;DHT22;9914;51.008;4.300;2023-08-21T02:22:23;20.80;99.90
19538;DHT22;9914;51.008;4.300;2023-08-21T02:24:49;20.80;99.90
19538;DHT22;9914;51.008;4.300;2023-08-21T02:27:14;20.70;99.90
19538;DHT22;9914;51.008;4.300;2023-08-21T02:29:40;20.60;99.90
19538;DHT22;9914;51.008;4.300;2023-08-21T02:32:06;20.60;99.90
19538;DHT22;9914;51.008;4.300;2023-08-21T02:34:31;20.50;99.90
19538;DHT22;9914;51.008;4.300;2023-08-21T02:36:57;20.60;99.90
19538;DHT22;9914;51.008;4.300;2023-08-21T02:39:24;20.50;99.90
19538;DHT22;9914;51.008;4.300;2023-08-21T02:41:50;20.50;99.90
19538;DHT22;9914;51.008;4.300;2023-08-21T02:44:16;20.50;99.90
19538;DHT22;9914;51.008;4.300;2023-08-21T02:46:41;20.50;99.90
19538;DHT22;9914;51.008;4.300;2023-08-21T02:49:07;20.50;99.90
19538;DHT22;9914;51.008;4.300;2023-08-21T02:51:33;20.50;99.90
19538;DHT22;9914;51.008;4.300;2023-08-21T02:53:58;20.40;99.90
19538;DHT22;9914;51.008;4.300;2023-08-21T02:56:24;20.40;99.90
19538;DHT22;9914;51.008;4.300;2023-08-21T02:58:50;20.40;99.90
19538;DHT22;9914;51.008;4.300;2023-08-21T03:01:15;20.40;99.90
19538;DHT22;9914;51.008;4.300;2023-08-21T03:03:42;20.40;99.90
19538;DHT22;9914;51.008;4.300;2023-08-21T03:06:08;20.20;99.90
19538;DHT22;9914;51.008;4.300;2023-08-21T03:08:33;20.30;99.90
19538;DHT22;9914;51.008;4.300;2023-08-21T03:10:59;20.50;99.90
19538;DHT22;9914;51.008;4.300;2023-08-21T03:13:24;20.40;99.90
19538;DHT22;9914;51.008;4.300;2023-08-21T03:15:50;20.40;99.90
19538;DHT22;9914;51.008;4.300;2023-08-21T03:18:16;20.30;99.90
19538;DHT22;9914;51.008;4.300;2023-08-21T03:20:45;20.40;99.90
19538;DHT22;9914;51.008;4.300;2023-08-21T03:23:12;20.40;99.90
19538;DHT22;9914;51.008;4.300;2023-08-21T03:25:38;20.40;99.90
19538;DHT22;9914;51.008;4.300;2023-08-21T03:28:04;20.40;99.90
19538;DHT22;9914;51.008;4.300;2023-08-21T03:30:30;20.30;99.90
19538;DHT22;9914;51.008;4.300;2023-08-21T03:32:56;20.30;99.90
19538;DHT22;9914;51.008;4.300;2023-08-21T03:35:22;20.20;99.90
19538;DHT22;9914;51.008;4.300;2023-08-21T03:37:48;20.30;99.90
19538;DHT22;9914;51.008;4.300;2023-08-21T03:40:13;20.20;99.90
19538;DHT22;9914;51.008;4.300;2023-08-21T03:42:39;20.20;99.90
19538;DHT22;9914;51.008;4.300;2023-08-21T03:45:05;20.20;99.90
19538;DHT22;9914;51.008;4.300;2023-08-21T03:47:31;20.20;99.90
19538;DHT22;9914;51.008;4.300;2023-08-21T03:49:56;20.10;99.90
19538;DHT22;9914;51.008;4.300;2023-08-21T03:52:22;20.10;99.90
19538;DHT22;9914;51.008;4.300;2023-08-21T03:54:48;19.80;99.90
19538;DHT22;9914;51.008;4.300;2023-08-21T03:57:13;19.80;99.90
19538;DHT22;9914;51.008;4.300;2023-08-21T03:59:39;19.80;99.90
19538;DHT22;9914;51.008;4.300;2023-08-21T04:02:05;19.90;99.90
19538;DHT22;9914;51.008;4.300;2023-08-21T04:04:30;19.80;99.90
19538;DHT22;9914;51.008;4.300;2023-08-21T04:06:56;19.70;99.90
19538;DHT22;9914;51.008;4.300;2023-08-21T04:09:21;19.80;99.90
19538;DHT22;9914;51.008;4.300;2023-08-21T04:11:47;19.80;99.90
19538;DHT22;9914;51.008;4.300;2023-08-21T04:14:13;19.80;99.90
19538;DHT22;9914;51.008;4.300;2023-08-21T04:16:38;19.80;99.90
19538;DHT22;9914;51.008;4.300;2023-08-21T04:19:05;19.70;99.90
19538;DHT22;9914;51.008;4.300;2023-08-21T04:21:31;19.70;99.90
19538;DHT22;9914;51.008;4.300;2023-08-21T04:23:56;19.60;99.90
19538;DHT22;9914;51.008;4.300;2023-08-21T04:26:22;19.60;99.90
19538;DHT22;9914;51.008;4.300;2023-08-21T04:28:47;19.60;99.90
19538;DHT22;9914;51.008;4.300;2023-08-21T04:31:14;19.40;99.90
19538;DHT22;9914;51.008;4.300;2023-08-21T04:33:40;19.40;99.90
19538;DHT22;9914;51.008;4.300;2023-08-21T04:36:05;19.40;99.90
19538;DHT22;9914;51.008;4.300;2023-08-21T04:38:31;19.40;99.90
19538;DHT22;9914;51.008;4.300;2023-08-21T04:41:06;19.50;99.90
19538;DHT22;9914;51.008;4.300;2023-08-21T04:43:32;19.50;99.90
19538;DHT22;9914;51.008;4.300;2023-08-21T04:45:57;19.60;99.90
19538;DHT22;9914;51.008;4.300;2023-08-21T04:48:23;19.60;99.90
19538;DHT22;9914;51.008;4.300;2023-08-21T04:50:49;19.60;99.90
19538;DHT22;9914;51.008;4.300;2023-08-21T04:53:14;19.60;99.90
19538;DHT22;9914;51.008;4.300;2023-08-21T04:55:40;19.60;99.90
19538;DHT22;9914;51.008;4.300;2023-08-21T04:58:07;19.70;99.90
19538;DHT22;9914;51.008;4.300;2023-08-21T05:00:33;19.60;99.90
19538;DHT22;9914;51.008;4.300;2023-08-21T05:02:58;19.70;99.90
19538;DHT22;9914;51.008;4.300;2023-08-21T05:05:24;19.60;99.90
19538;DHT22;9914;51.008;4.300;2023-08-21T05:07:50;19.60;99.90
19538;DHT22;9914;51.008;4.300;2023-08-21T05:10:15;19.60;99.90
19538;DHT22;9914;51.008;4.300;2023-08-21T05:12:41;19.60;99.90
19538;DHT22;9914;51.008;4.300;2023-08-21T05:15:07;19.60;99.90
19538;DHT22;9914;51.008;4.300;2023-08-21T05:17:33;19.60;99.90
19538;DHT22;9914;51.008;4.300;2023-08-21T05:19:58;19.70;99.90
19538;DHT22;9914;51.008;4.300;2023-08-21T05:22:24;19.70;99.90
19538;DHT22;9914;51.008;4.300;2023-08-21T05:24:50;19.70;99.90
19538;DHT22;9914;51.008;4.300;2023-08-21T05:27:15;19.80;99.90
19538;DHT22;9914;51.008;4.300;2023-08-21T05:29:41;19.80;99.90
19538;DHT22;9914;51.008;4.300;2023-08-21T05:32:07;19.80;99.90
19538;DHT22;9914;51.008;4.300;2023-08-21T05:34:32;19.80;99.90
19538;DHT22;9914;51.008;4.300;2023-08-21T05:36:58;19.80;99.90
19538;DHT22;9914;51.008;4.300;2023-08-21T05:39:24;19.90;99.90
19538;DHT22;9914;51.008;4.300;2023-08-21T05:41:49;19.90;99.90
19538;DHT22;9914;51.008;4.300;2023-08-21T05:44:15;20.00;99.90
19538;DHT22;9914;51.008;4.300;2023-08-21T05:46:41;20.00;99.90
19538;DHT22;9914;51.008;4.300;2023-08-21T05:49:06;20.10;99.90
19538;DHT22;9914;51.008;4.300;2023-08-21T05:51:33;20.10;99.90
19538;DHT22;9914;51.008;4.300;2023-08-21T05:54:00;20.20;99.90
19538;DHT22;9914;51.008;4.300;2023-08-21T05:56:26;20.30;99.90
19538;DHT22;9914;51.008;4.300;2023-08-21T05:58:52;20.40;99.90
19538;DHT22;9914;51.008;4.300;2023-08-21T06:01:18;20.50;99.90
19538;DHT22;9914;51.008;4.300;2023-08-21T06:03:43;20.60;99.90
19538;DHT22;9914;51.008;4.300;2023-08-21T06:06:10;20.70;99.90
19538;DHT22;9914;51.008;4.300;2023-08-21T06:08:36;20.80;99.90
19538;DHT22;9914;51.008;4.300;2023-08-21T06:11:02;20.90;99.90
19538;DHT22;9914;51.008;4.300;2023-08-21T06:13:28;21.00;99.90
19538;DHT22;9914;51.008;4.300;2023-08-21T06:15:54;20.70;99.90
19538;DHT22;9914;51.008;4.300;2023-08-21T06:18:19;20.70;99.90
19538;DHT22;9914;51.008;4.300;2023-08-21T06:20:45;20.90;99.90
19538;DHT22;9914;51.008;4.300;2023-08-21T06:23:11;21.00;99.90
19538;DHT22;9914;51.008;4.300;2023-08-21T06:25:37;20.90;99.90
19538;DHT22;9914;51.008;4.300;2023-08-21T06:28:03;21.10;99.90
19538;DHT22;9914;51.008;4.300;2023-08-21T06:30:29;21.20;99.90
19538;DHT22;9914;51.008;4.300;2023-08-21T06:32:55;21.10;99.90
19538;DHT22;9914;51.008;4.300;2023-08-21T06:35:21;21.30;99.90
19538;DHT22;9914;51.008;4.300;2023-08-21T06:37:47;21.30;99.90
19538;DHT22;9914;51.008;4.300;2023-08-21T06:40:13;21.40;99.90
19538;DHT22;9914;51.008;4.300;2023-08-21T06:42:40;21.20;99.90
19538;DHT22;9914;51.008;4.300;2023-08-21T06:45:06;21.30;99.90
19538;DHT22;9914;51.008;4.300;2023-08-21T06:47:32;21.40;99.90
19538;DHT22;9914;51.008;4.300;2023-08-21T06:49:59;21.50;99.90
19538;DHT22;9914;51.008;4.300;2023-08-21T06:52:26;21.50;99.90
19538;DHT22;9914;51.008;4.300;2023-08-21T06:54:52;21.50;99.90
19538;DHT22;9914;51.008;4.300;2023-08-21T06:57:17;21.50;99.90
19538;DHT22;9914;51.008;4.300;2023-08-21T06:59:43;21.60;99.90
19538;DHT22;9914;51.008;4.300;2023-08-21T07:02:09;21.50;99.90
19538;DHT22;9914;51.008;4.300;2023-08-21T07:04:35;21.60;99.90
19538;DHT22;9914;51.008;4.300;2023-08-21T07:07:00;21.70;99.90
19538;DHT22;9914;51.008;4.300;2023-08-21T07:09:26;21.90;99.90
19538;DHT22;9914;51.008;4.300;2023-08-21T07:11:52;22.00;99.90
19538;DHT22;9914;51.008;4.300;2023-08-21T07:14:19;21.70;99.90
19538;DHT22;9914;51.008;4.300;2023-08-21T07:16:44;21.80;99.90
19538;DHT22;9914;51.008;4.300;2023-08-21T07:19:10;22.10;99.90
19538;DHT22;9914;51.008;4.300;2023-08-21T07:21:36;22.30;99.90
19538;DHT22;9914;51.008;4.300;2023-08-21T07:24:04;22.40;99.90
19538;DHT22;9914;51.008;4.300;2023-08-21T07:26:44;22.00;99.90
19538;DHT22;9914;51.008;4.300;2023-08-21T07:29:10;22.20;99.90
19538;DHT22;9914;51.008;4.300;2023-08-21T07:31:35;22.40;99.90
19538;DHT22;9914;51.008;4.300;2023-08-21T07:34:01;21.90;99.90
19538;DHT22;9914;51.008;4.300;2023-08-21T07:36:27;22.20;99.90
19538;DHT22;9914;51.008;4.300;2023-08-21T07:38:52;22.60;99.90
19538;DHT22;9914;51.008;4.300;2023-08-21T07:41:18;22.20;99.90
19538;DHT22;9914;51.008;4.300;2023-08-21T07:43:44;22.50;99.90
19538;DHT22;9914;51.008;4.300;2023-08-21T07:46:12;22.80;99.90
19538;DHT22;9914;51.008;4.300;2023-08-21T07:48:41;22.90;99.90
19538;DHT22;9914;51.008;4.300;2023-08-21T07:51:07;22.40;99.90
19538;DHT22;9914;51.008;4.300;2023-08-21T07:53:34;22.50;99.90
19538;DHT22;9914;51.008;4.300;2023-08-21T07:56:01;22.90;99.90
19538;DHT22;9914;51.008;4.300;2023-08-21T07:58:27;23.10;99.90
19538;DHT22;9914;51.008;4.300;2023-08-21T08:00:53;23.30;99.90
19538;DHT22;9914;51.008;4.300;2023-08-21T08:03:19;23.30;99.90
19538;DHT22;9914;51.008;4.300;2023-08-21T08:05:44;22.80;99.90
19538;DHT22;9914;51.008;4.300;2023-08-21T08:08:10;23.10;99.90
19538;DHT22;9914;51.008;4.300;2023-08-21T08:10:40;23.40;99.90
19538;DHT22;9914;51.008;4.300;2023-08-21T08:13:06;23.60;99.90
19538;DHT22;9914;51.008;4.300;2023-08-21T08:15:33;23.60;99.90
19538;DHT22;9914;51.008;4.300;2023-08-21T08:18:00;23.80;99.90
19538;DHT22;9914;51.008;4.300;2023-08-21T08:20:26;23.70;99.90
19538;DHT22;9914;51.008;4.300;2023-08-21T08:22:53;23.80;99.90
19538;DHT22;9914;51.008;4.300;2023-08-21T08:25:18;24.00;99.90
19538;DHT22;9914;51.008;4.300;2023-08-21T08:27:45;24.10;99.90
19538;DHT22;9914;51.008;4.300;2023-08-21T08:30:11;24.10;99.90
19538;DHT22;9914;51.008;4.300;2023-08-21T08:32:37;24.20;99.90
19538;DHT22;9914;51.008;4.300;2023-08-21T08:35:02;24.40;99.90
19538;DHT22;9914;51.008;4.300;2023-08-21T08:37:28;24.50;99.90
19538;DHT22;9914;51.008;4.300;2023-08-21T08:39:54;24.60;99.90
19538;DHT22;9914;51.008;4.300;2023-08-21T08:42:19;24.80;99.90
19538;DHT22;9914;51.008;4.300;2023-08-21T08:44:47;24.90;99.90
19538;DHT22;9914;51.008;4.300;2023-08-21T08:47:13;25.10;99.90
19538;DHT22;9914;51.008;4.300;2023-08-21T08:49:40;25.00;99.90
19538;DHT22;9914;51.008;4.300;2023-08-21T08:52:06;25.20;99.90
19538;DHT22;9914;51.008;4.300;2023-08-21T08:54:31;25.40;99.90
19538;DHT22;9914;51.008;4.300;2023-08-21T08:56:58;25.50;99.90
19538;DHT22;9914;51.008;4.300;2023-08-21T08:59:24;25.50;99.90
19538;DHT22;9914;51.008;4.300;2023-08-21T09:01:49;25.50;99.90
19538;DHT22;9914;51.008;4.300;2023-08-21T09:04:15;25.50;99.90
19538;DHT22;9914;51.008;4.300;2023-08-21T09:06:41;25.60;99.90
19538;DHT22;9914;51.008;4.300;2023-08-21T09:09:08;25.60;99.90
19538;DHT22;9914;51.008;4.300;2023-08-21T09:11:37;25.70;99.90
19538;DHT22;9914;51.008;4.300;2023-08-21T09:14:07;25.70;99.90
19538;DHT22;9914;51.008;4.300;2023-08-21T09:16:33;25.80;99.90
19538;DHT22;9914;51.008;4.300;2023-08-21T09:18:59;25.70;99.90
19538;DHT22;9914;51.008;4.300;2023-08-21T09:21:25;25.70;99.90
19538;DHT22;9914;51.008;4.300;2023-08-21T09:24:01;25.70;99.90
19538;DHT22;9914;51.008;4.300;2023-08-21T09:26:33;25.80;99.90
19538;DHT22;9914;51.008;4.300;2023-08-21T09:28:59;25.90;99.90
19538;DHT22;9914;51.008;4.300;2023-08-21T09:31:31;26.00;99.90
19538;DHT22;9914;51.008;4.300;2023-08-21T09:33:59;25.90;99.90
19538;DHT22;9914;51.008;4.300;2023-08-21T09:36:26;25.80;99.90
19538;DHT22;9914;51.008;4.300;2023-08-21T09:38:52;25.90;99.90
19538;DHT22;9914;51.008;4.300;2023-08-21T09:41:22;26.00;99.90
19538;DHT22;9914;51.008;4.300;2023-08-21T09:43:49;26.20;99.90
19538;DHT22;9914;51.008;4.300;2023-08-21T09:46:15;26.30;99.90
19538;DHT22;9914;51.008;4.300;2023-08-21T09:48:45;26.50;99.90
19538;DHT22;9914;51.008;4.300;2023-08-21T09:51:12;26.60;99.90
19538;DHT22;9914;51.008;4.300;2023-08-21T09:53:37;26.80;99.90
19538;DHT22;9914;51.008;4.300;2023-08-21T09:56:05;26.90;99.90
19538;DHT22;9914;51.008;4.300;2023-08-21T09:58:31;27.10;99.90
19538;DHT22;9914;51.008;4.300;2023-08-21T10:00:57;27.20;99.90
19538;DHT22;9914;51.008;4.300;2023-08-21T10:03:24;27.20;99.90
19538;DHT22;9914;51.008;4.300;2023-08-21T10:05:51;26.50;99.90
19538;DHT22;9914;51.008;4.300;2023-08-21T10:08:24;25.70;99.90
19538;DHT22;9914;51.008;4.300;2023-08-21T10:10:51;25.40;99.90
19538;DHT22;9914;51.008;4.300;2023-08-21T10:13:16;26.10;99.90
19538;DHT22;9914;51.008;4.300;2023-08-21T10:15:43;26.50;99.90
19538;DHT22;9914;51.008;4.300;2023-08-21T10:20:45;27.00;99.90
19538;DHT22;9914;51.008;4.300;2023-08-21T10:23:27;26.70;99.90
19538;DHT22;9914;51.008;4.300;2023-08-21T10:26:03;26.90;99.90
19538;DHT22;9914;51.008;4.300;2023-08-21T10:31:40;26.60;99.90
19538;DHT22;9914;51.008;4.300;2023-08-21T10:34:12;27.20;99.90
19538;DHT22;9914;51.008;4.300;2023-08-21T10:39:24;26.30;99.90
19538;DHT22;9914;51.008;4.300;2023-08-21T10:41:57;26.10;99.90
19538;DHT22;9914;51.008;4.300;2023-08-21T10:50:00;26.40;99.90
19538;DHT22;9914;51.008;4.300;2023-08-21T10:52:28;25.90;99.90
19538;DHT22;9914;51.008;4.300;2023-08-21T10:54:59;26.50;99.90
19538;DHT22;9914;51.008;4.300;2023-08-21T10:57:27;26.90;99.90
19538;DHT22;9914;51.008;4.300;2023-08-21T11:02:36;26.10;99.90
19538;DHT22;9914;51.008;4.300;2023-08-21T11:05:02;26.10;99.90
19538;DHT22;9914;51.008;4.300;2023-08-21T11:07:29;26.00;99.90
19538;DHT22;9914;51.008;4.300;2023-08-21T11:09:55;26.00;99.90
19538;DHT22;9914;51.008;4.300;2023-08-21T11:12:23;25.70;99.90
19538;DHT22;9914;51.008;4.300;2023-08-21T11:14:50;25.80;99.90
19538;DHT22;9914;51.008;4.300;2023-08-21T11:17:16;26.10;99.90
19538;DHT22;9914;51.008;4.300;2023-08-21T11:19:43;26.40;99.90
19538;DHT22;9914;51.008;4.300;2023-08-21T11:22:11;26.50;99.90
19538;DHT22;9914;51.008;4.300;2023-08-21T11:25:02;26.90;99.90
19538;DHT22;9914;51.008;4.300;2023-08-21T11:27:30;26.70;99.90
19538;DHT22;9914;51.008;4.300;2023-08-21T11:29:56;27.10;99.90
19538;DHT22;9914;51.008;4.300;2023-08-21T11:32:23;26.60;99.90
19538;DHT22;9914;51.008;4.300;2023-08-21T11:34:50;26.10;99.90
19538;DHT22;9914;51.008;4.300;2023-08-21T11:37:17;26.10;99.90
19538;DHT22;9914;51.008;4.300;2023-08-21T11:39:55;26.80;99.90
19538;DHT22;9914;51.008;4.300;2023-08-21T11:42:32;26.90;99.90
19538;DHT22;9914;51.008;4.300;2023-08-21T11:45:00;26.40;99.90
19538;DHT22;9914;51.008;4.300;2023-08-21T11:47:31;26.30;99.90
19538;DHT22;9914;51.008;4.300;2023-08-21T11:50:05;26.70;99.90
19538;DHT22;9914;51.008;4.300;2023-08-21T11:52:31;27.30;99.90
19538;DHT22;9914;51.008;4.300;2023-08-21T11:54:57;27.80;99.90
19538;DHT22;9914;51.008;4.300;2023-08-21T11:57:23;28.10;99.90
19538;DHT22;9914;51.008;4.300;2023-08-21T11:59:57;28.10;99.90
19538;DHT22;9914;51.008;4.300;2023-08-21T12:02:27;28.00;99.90
19538;DHT22;9914;51.008;4.300;2023-08-21T12:05:05;28.10;99.90
19538;DHT22;9914;51.008;4.300;2023-08-21T12:07:32;27.90;99.90
19538;DHT22;9914;51.008;4.300;2023-08-21T12:09:58;28.00;99.90
19538;DHT22;9914;51.008;4.300;2023-08-21T12:12:25;28.20;99.90
19538;DHT22;9914;51.008;4.300;2023-08-21T12:14:50;28.30;99.90
19538;DHT22;9914;51.008;4.300;2023-08-21T12:17:16;28.50;99.90
19538;DHT22;9914;51.008;4.300;2023-08-21T12:19:42;28.00;99.90
19538;DHT22;9914;51.008;4.300;2023-08-21T12:22:09;28.30;99.90
19538;DHT22;9914;51.008;4.300;2023-08-21T12:24:35;28.40;99.90
19538;DHT22;9914;51.008;4.300;2023-08-21T12:27:03;28.20;99.90
19538;DHT22;9914;51.008;4.300;2023-08-21T12:29:29;28.30;99.90
19538;DHT22;9914;51.008;4.300;2023-08-21T12:31:54;28.50;99.90
19538;DHT22;9914;51.008;4.300;2023-08-21T12:34:20;28.60;99.90
19538;DHT22;9914;51.008;4.300;2023-08-21T12:36:46;28.70;99.90
19538;DHT22;9914;51.008;4.300;2023-08-21T12:39:13;28.70;99.90
19538;DHT22;9914;51.008;4.300;2023-08-21T12:41:41;28.70;99.90
19538;DHT22;9914;51.008;4.300;2023-08-21T12:44:07;28.70;99.90
19538;DHT22;9914;51.008;4.300;2023-08-21T12:46:36;28.90;99.90
19538;DHT22;9914;51.008;4.300;2023-08-21T12:49:01;29.00;99.90
19538;DHT22;9914;51.008;4.300;2023-08-21T12:51:28;29.10;99.90
19538;DHT22;9914;51.008;4.300;2023-08-21T12:53:54;29.20;99.90
19538;DHT22;9914;51.008;4.300;2023-08-21T12:56:20;29.20;99.90
19538;DHT22;9914;51.008;4.300;2023-08-21T12:58:46;29.00;99.90
19538;DHT22;9914;51.008;4.300;2023-08-21T13:01:12;28.90;99.90
19538;DHT22;9914;51.008;4.300;2023-08-21T13:03:38;28.60;99.90
19538;DHT22;9914;51.008;4.300;2023-08-21T13:06:04;28.80;99.90
19538;DHT22;9914;51.008;4.300;2023-08-21T13:08:30;29.00;99.90
19538;DHT22;9914;51.008;4.300;2023-08-21T13:10:56;29.10;99.90
19538;DHT22;9914;51.008;4.300;2023-08-21T13:13:21;29.10;99.90
19538;DHT22;9914;51.008;4.300;2023-08-21T13:15:47;29.20;99.90
19538;DHT22;9914;51.008;4.300;2023-08-21T13:18:13;29.40;99.90
19538;DHT22;9914;51.008;4.300;2023-08-21T13:20:41;29.30;99.90
19538;DHT22;9914;51.008;4.300;2023-08-21T13:23:07;29.30;99.90
19538;DHT22;9914;51.008;4.300;2023-08-21T13:25:34;29.40;99.90
19538;DHT22;9914;51.008;4.300;2023-08-21T13:28:01;29.30;99.90
19538;DHT22;9914;51.008;4.300;2023-08-21T13:30:27;29.20;99.90
19538;DHT22;9914;51.008;4.300;2023-08-21T13:32:52;29.20;99.90
19538;DHT22;9914;51.008;4.300;2023-08-21T13:35:19;28.90;99.90
19538;DHT22;9914;51.008;4.300;2023-08-21T13:37:46;28.60;99.90
19538;DHT22;9914;51.008;4.300;2023-08-21T13:40:12;28.90;99.90
19538;DHT22;9914;51.008;4.300;2023-08-21T13:42:43;29.20;99.90
19538;DHT22;9914;51.008;4.300;2023-08-21T13:45:11;29.40;99.90
19538;DHT22;9914;51.008;4.300;2023-08-21T13:47:39;29.50;99.90
19538;DHT22;9914;51.008;4.300;2023-08-21T13:50:06;29.60;99.90
19538;DHT22;9914;51.008;4.300;2023-08-21T13:52:32;29.60;99.90
19538;DHT22;9914;51.008;4.300;2023-08-21T13:54:58;29.60;99.90
19538;DHT22;9914;51.008;4.300;2023-08-21T13:57:24;29.70;99.90
19538;DHT22;9914;51.008;4.300;2023-08-21T13:59:50;29.70;99.90
19538;DHT22;9914;51.008;4.300;2023-08-21T14:02:16;29.70;99.90
19538;DHT22;9914;51.008;4.300;2023-08-21T14:04:44;29.60;99.90
19538;DHT22;9914;51.008;4.300;2023-08-21T14:07:11;29.60;99.90
19538;DHT22;9914;51.008;4.300;2023-08-21T14:09:38;29.60;99.90
19538;DHT22;9914;51.008;4.300;2023-08-21T14:12:05;29.60;99.90
19538;DHT22;9914;51.008;4.300;2023-08-21T14:14:33;29.50;99.90
19538;DHT22;9914;51.008;4.300;2023-08-21T14:16:58;29.50;99.90
19538;DHT22;9914;51.008;4.300;2023-08-21T14:19:25;29.40;99.90
19538;DHT22;9914;51.008;4.300;2023-08-21T14:21:51;29.50;99.90
19538;DHT22;9914;51.008;4.300;2023-08-21T14:24:17;29.50;99.90
19538;DHT22;9914;51.008;4.300;2023-08-21T14:26:42;29.60;99.90
19538;DHT22;9914;51.008;4.300;2023-08-21T14:29:08;29.60;99.90
19538;DHT22;9914;51.008;4.300;2023-08-21T14:31:34;29.50;99.90
19538;DHT22;9914;51.008;4.300;2023-08-21T14:33:59;29.60;99.90
19538;DHT22;9914;51.008;4.300;2023-08-21T14:36:25;29.70;99.90
19538;DHT22;9914;51.008;4.300;2023-08-21T14:38:52;29.40;99.90
19538;DHT22;9914;51.008;4.300;2023-08-21T14:41:19;29.50;99.90
19538;DHT22;9914;51.008;4.300;2023-08-21T14:43:44;29.50;99.90
19538;DHT22;9914;51.008;4.300;2023-08-21T14:46:10;29.40;99.90
19538;DHT22;9914;51.008;4.300;2023-08-21T14:48:36;29.30;99.90
19538;DHT22;9914;51.008;4.300;2023-08-21T14:51:03;29.50;99.90
19538;DHT22;9914;51.008;4.300;2023-08-21T14:53:29;29.60;99.90
19538;DHT22;9914;51.008;4.300;2023-08-21T14:55:55;29.70;99.90
19538;DHT22;9914;51.008;4.300;2023-08-21T14:58:20;29.20;99.90
19538;DHT22;9914;51.008;4.300;2023-08-21T15:00:46;29.50;99.90
19538;DHT22;9914;51.008;4.300;2023-08-21T15:03:12;29.00;99.90
19538;DHT22;9914;51.008;4.300;2023-08-21T15:05:37;29.10;99.90
19538;DHT22;9914;51.008;4.300;2023-08-21T15:08:03;29.00;99.90
19538;DHT22;9914;51.008;4.300;2023-08-21T15:10:29;28.80;99.90
19538;DHT22;9914;51.008;4.300;2023-08-21T15:12:55;29.20;99.90
19538;DHT22;9914;51.008;4.300;2023-08-21T15:15:21;29.20;99.90
19538;DHT22;9914;51.008;4.300;2023-08-21T15:17:47;28.70;99.90
19538;DHT22;9914;51.008;4.300;2023-08-21T15:20:12;28.60;99.90
19538;DHT22;9914;51.008;4.300;2023-08-21T15:22:41;29.20;99.90
19538;DHT22;9914;51.008;4.300;2023-08-21T15:25:08;30.70;99.90
19538;DHT22;9914;51.008;4.300;2023-08-21T15:27:34;32.00;99.90
19538;DHT22;9914;51.008;4.300;2023-08-21T15:30:00;33.30;99.90
19538;DHT22;9914;51.008;4.300;2023-08-21T15:32:26;33.00;99.90
19538;DHT22;9914;51.008;4.300;2023-08-21T15:34:52;33.60;99.90
19538;DHT22;9914;51.008;4.300;2023-08-21T15:37:18;35.60;98.70
19538;DHT22;9914;51.008;4.300;2023-08-21T15:39:43;36.40;96.10
19538;DHT22;9914;51.008;4.300;2023-08-21T15:42:09;37.40;95.00
19538;DHT22;9914;51.008;4.300;2023-08-21T15:44:35;37.80;93.30
19538;DHT22;9914;51.008;4.300;2023-08-21T15:47:00;37.10;92.80
19538;DHT22;9914;51.008;4.300;2023-08-21T15:49:26;37.70;91.90
19538;DHT22;9914;51.008;4.300;2023-08-21T15:51:52;37.70;91.10
19538;DHT22;9914;51.008;4.300;2023-08-21T15:54:20;38.30;90.50
19538;DHT22;9914;51.008;4.300;2023-08-21T15:56:54;39.40;88.80
19538;DHT22;9914;51.008;4.300;2023-08-21T15:59:20;39.60;87.10
19538;DHT22;9914;51.008;4.300;2023-08-21T16:01:45;39.40;87.10